sensor_id;sensor_type;location;lat;lon;timestamp;temperature;humidity
25877;DHT22;13692;47.480;19.216;2024-02-15T00:00:30;7.30;99.90
25877;DHT22;13692;47.480;19.216;2024-02-15T00:02:58;7.40;99.90
25877;DHT22;13692;47.480;19.216;2024-02-15T00:05:44;7.40;99.90
25877;DHT22;13692;47.480;19.216;2024-02-15T00:08:11;7.40;99.90
25877;DHT22;13692;47.480;19.216;2024-02-15T00:10:38;7.40;99.90
25877;DHT22;13692;47.480;19.216;2024-02-15T00:13:05;7.40;99.90
25877;DHT22;13692;47.480;19.216;2024-02-15T00:15:33;7.40;99.90
25877;DHT22;13692;47.480;19.216;2024-02-15T00:18:04;7.40;99.90
25877;DHT22;13692;47.480;19.216;2024-02-15T00:20:31;7.40;99.90
25877;DHT22;13692;47.480;19.216;2024-02-15T00:23:01;7.30;99.90
25877;DHT22;13692;47.480;19.216;2024-02-15T00:25:28;7.30;99.90
25877;DHT22;13692;47.480;19.216;2024-02-15T00:27:55;7.30;99.90
25877;DHT22;13692;47.480;19.216;2024-02-15T00:30:22;7.40;99.90
25877;DHT22;13692;47.480;19.216;2024-02-15T00:32:49;7.40;99.90
25877;DHT22;13692;47.480;19.216;2024-02-15T00:35:16;7.40;99.90
25877;DHT22;13692;47.480;19.216;2024-02-15T00:37:43;7.40;99.90
25877;DHT22;13692;47.480;19.216;2024-02-15T00:40:11;7.40;99.90
25877;DHT22;13692;47.480;19.216;2024-02-15T00:42:38;7.40;99.90
25877;DHT22;13692;47.480;19.216;2024-02-15T00:45:06;7.30;99.90
25877;DHT22;13692;47.480;19.216;2024-02-15T00:47:36;7.30;99.90
25877;DHT22;13692;47.480;19.216;2024-02-15T00:50:05;7.30;99.90
25877;DHT22;13692;47.480;19.216;2024-02-15T00:52:33;7.40;99.90
25877;DHT22;13692;47.480;19.216;2024-02-15T00:55:00;7.40;99.90
25877;DHT22;13692;47.480;19.216;2024-02-15T00:57:27;7.50;99.90
25877;DHT22;13692;47.480;19.216;2024-02-15T00:59:54;7.60;99.90
25877;DHT22;13692;47.480;19.216;2024-02-15T01:02:21;7.60;99.90
25877;DHT22;13692;47.480;19.216;2024-02-15T01:04:48;7.60;99.90
25877;DHT22;13692;47.480;19.216;2024-02-15T01:07:16;7.50;99.90
25877;DHT22;13692;47.480;19.216;2024-02-15T01:09:43;7.60;99.90
25877;DHT22;13692;47.480;19.216;2024-02-15T01:12:12;7.60;99.90
25877;DHT22;13692;47.480;19.216;2024-02-15T01:14:39;7.60;99.90
25877;DHT22;13692;47.480;19.216;2024-02-15T01:17:06;7.60;99.90
25877;DHT22;13692;47.480;19.216;2024-02-15T01:19:33;7.60;99.90
25877;DHT22;13692;47.480;19.216;2024-02-15T01:22:00;7.60;99.90
25877;DHT22;13692;47.480;19.216;2024-02-15T01:24:26;7.60;99.90
25877;DHT22;13692;47.480;19.216;2024-02-15T01:26:53;7.60;99.90
25877;DHT22;13692;47.480;19.216;2024-02-15T01:29:21;7.60;99.90
25877;DHT22;13692;47.480;19.216;2024-02-15T01:31:48;7.70;99.90
25877;DHT22;13692;47.480;19.216;2024-02-15T01:34:15;7.70;99.90
25877;DHT22;13692;47.480;19.216;2024-02-15T01:36:42;7.70;99.90
25877;DHT22;13692;47.480;19.216;2024-02-15T01:39:09;7.70;99.90
25877;DHT22;13692;47.480;19.216;2024-02-15T01:41:36;7.60;99.90
25877;DHT22;13692;47.480;19.216;2024-02-15T01:44:04;7.60;99.90
25877;DHT22;13692;47.480;19.216;2024-02-15T01:46:33;7.60;99.90
25877;DHT22;13692;47.480;19.216;2024-02-15T01:49:00;7.60;99.90
25877;DHT22;13692;47.480;19.216;2024-02-15T01:51:27;7.60;99.90
25877;DHT22;13692;47.480;19.216;2024-02-15T01:53:55;7.60;99.90
25877;DHT22;13692;47.480;19.216;2024-02-15T01:56:23;7.60;99.90
25877;DHT22;13692;47.480;19.216;2024-02-15T01:58:52;7.60;99.90
25877;DHT22;13692;47.480;19.216;2024-02-15T02:01:20;7.60;99.90
25877;DHT22;13692;47.480;19.216;2024-02-15T02:03:48;7.60;99.90
25877;DHT22;13692;47.480;19.216;2024-02-15T02:06:15;7.60;99.90
25877;DHT22;13692;47.480;19.216;2024-02-15T02:08:42;7.50;99.90
25877;DHT22;13692;47.480;19.216;2024-02-15T02:11:09;7.50;99.90
25877;DHT22;13692;47.480;19.216;2024-02-15T02:13:36;7.60;99.90
25877;DHT22;13692;47.480;19.216;2024-02-15T02:16:03;7.60;99.90
25877;DHT22;13692;47.480;19.216;2024-02-15T02:18:31;7.50;99.90
25877;DHT22;13692;47.480;19.216;2024-02-15T02:20:58;7.40;99.90
25877;DHT22;13692;47.480;19.216;2024-02-15T02:23:26;7.30;99.90
25877;DHT22;13692;47.480;19.216;2024-02-15T02:25:56;7.20;99.90
25877;DHT22;13692;47.480;19.216;2024-02-15T02:28:23;7.30;99.90
25877;DHT22;13692;47.480;19.216;2024-02-15T02:30:50;7.40;99.90
25877;DHT22;13692;47.480;19.216;2024-02-15T02:33:18;7.50;99.90
25877;DHT22;13692;47.480;19.216;2024-02-15T02:35:49;7.60;99.90
25877;DHT22;13692;47.480;19.216;2024-02-15T02:38:17;7.60;99.90
25877;DHT22;13692;47.480;19.216;2024-02-15T02:40:44;7.60;99.90
25877;DHT22;13692;47.480;19.216;2024-02-15T02:43:11;7.60;99.90
25877;DHT22;13692;47.480;19.216;2024-02-15T02:45:38;7.60;99.90
25877;DHT22;13692;47.480;19.216;2024-02-15T02:48:05;7.60;99.90
25877;DHT22;13692;47.480;19.216;2024-02-15T02:50:33;7.70;99.90
25877;DHT22;13692;47.480;19.216;2024-02-15T02:53:01;7.70;99.90
25877;DHT22;13692;47.480;19.216;2024-02-15T02:55:28;7.70;99.90
25877;DHT22;13692;47.480;19.216;2024-02-15T02:57:55;7.70;99.90
25877;DHT22;13692;47.480;19.216;2024-02-15T03:00:22;7.70;99.90
25877;DHT22;13692;47.480;19.216;2024-02-15T03:02:50;7.60;99.90
25877;DHT22;13692;47.480;19.216;2024-02-15T03:05:17;7.60;99.90
25877;DHT22;13692;47.480;19.216;2024-02-15T03:07:48;7.50;99.90
25877;DHT22;13692;47.480;19.216;2024-02-15T03:10:15;7.60;99.90
25877;DHT22;13692;47.480;19.216;2024-02-15T03:12:42;7.50;99.90
25877;DHT22;13692;47.480;19.216;2024-02-15T03:15:15;7.50;99.90
25877;DHT22;13692;47.480;19.216;2024-02-15T03:17:44;7.50;99.90
25877;DHT22;13692;47.480;19.216;2024-02-15T03:20:12;7.50;99.90
25877;DHT22;13692;47.480;19.216;2024-02-15T03:22:56;7.50;99.90
25877;DHT22;13692;47.480;19.216;2024-02-15T03:25:25;7.50;99.90
25877;DHT22;13692;47.480;19.216;2024-02-15T03:27:53;7.50;99.90
25877;DHT22;13692;47.480;19.216;2024-02-15T03:30:21;7.40;99.90
25877;DHT22;13692;47.480;19.216;2024-02-15T03:32:49;7.40;99.90
25877;DHT22;13692;47.480;19.216;2024-02-15T03:35:21;7.50;99.90
25877;DHT22;13692;47.480;19.216;2024-02-15T03:37:52;7.50;99.90
25877;DHT22;13692;47.480;19.216;2024-02-15T03:40:19;7.40;99.90
25877;DHT22;13692;47.480;19.216;2024-02-15T03:42:47;7.40;99.90
25877;DHT22;13692;47.480;19.216;2024-02-15T03:45:14;7.40;99.90
25877;DHT22;13692;47.480;19.216;2024-02-15T03:47:41;7.40;99.90
25877;DHT22;13692;47.480;19.216;2024-02-15T03:50:09;7.50;99.90
25877;DHT22;13692;47.480;19.216;2024-02-15T03:52:37;7.50;99.90
25877;DHT22;13692;47.480;19.216;2024-02-15T03:55:05;7.50;99.90
25877;DHT22;13692;47.480;19.216;2024-02-15T03:57:35;7.40;99.90
25877;DHT22;13692;47.480;19.216;2024-02-15T04:00:02;7.40;99.90
25877;DHT22;13692;47.480;19.216;2024-02-15T04:02:31;7.80;99.90
25877;DHT22;13692;47.480;19.216;2024-02-15T04:04:58;7.40;99.90
25877;DHT22;13692;47.480;19.216;2024-02-15T04:07:25;7.40;99.90
25877;DHT22;13692;47.480;19.216;2024-02-15T04:09:53;7.50;99.90
25877;DHT22;13692;47.480;19.216;2024-02-15T04:12:21;7.40;99.90
25877;DHT22;13692;47.480;19.216;2024-02-15T04:14:48;7.50;99.90
25877;DHT22;13692;47.480;19.216;2024-02-15T04:17:16;7.50;99.90
25877;DHT22;13692;47.480;19.216;2024-02-15T04:19:48;7.50;99.90
25877;DHT22;13692;47.480;19.216;2024-02-15T04:22:17;7.50;99.90
25877;DHT22;13692;47.480;19.216;2024-02-15T04:24:44;7.50;99.90
25877;DHT22;13692;47.480;19.216;2024-02-15T04:27:12;7.50;99.90
25877;DHT22;13692;47.480;19.216;2024-02-15T04:29:41;7.50;99.90
25877;DHT22;13692;47.480;19.216;2024-02-15T04:32:11;7.50;99.90
25877;DHT22;13692;47.480;19.216;2024-02-15T04:34:41;7.50;99.90
25877;DHT22;13692;47.480;19.216;2024-02-15T04:37:11;7.40;99.90
25877;DHT22;13692;47.480;19.216;2024-02-15T04:39:40;7.40;99.90
25877;DHT22;13692;47.480;19.216;2024-02-15T04:42:07;7.40;99.90
25877;DHT22;13692;47.480;19.216;2024-02-15T04:44:41;7.30;99.90
25877;DHT22;13692;47.480;19.216;2024-02-15T04:47:08;7.40;99.90
25877;DHT22;13692;47.480;19.216;2024-02-15T04:49:35;7.40;99.90
25877;DHT22;13692;47.480;19.216;2024-02-15T04:52:05;7.40;99.90
25877;DHT22;13692;47.480;19.216;2024-02-15T04:54:33;7.30;99.90
25877;DHT22;13692;47.480;19.216;2024-02-15T04:57:00;7.30;99.90
25877;DHT22;13692;47.480;19.216;2024-02-15T04:59:27;7.20;99.90
25877;DHT22;13692;47.480;19.216;2024-02-15T05:01:57;7.20;99.90
25877;DHT22;13692;47.480;19.216;2024-02-15T05:04:24;7.30;99.90
25877;DHT22;13692;47.480;19.216;2024-02-15T05:06:51;7.30;99.90
25877;DHT22;13692;47.480;19.216;2024-02-15T05:09:20;7.40;99.90
25877;DHT22;13692;47.480;19.216;2024-02-15T05:11:47;7.40;99.90
25877;DHT22;13692;47.480;19.216;2024-02-15T05:14:15;7.40;99.90
25877;DHT22;13692;47.480;19.216;2024-02-15T05:16:47;7.40;99.90
25877;DHT22;13692;47.480;19.216;2024-02-15T05:19:17;7.30;99.90
25877;DHT22;13692;47.480;19.216;2024-02-15T05:21:46;7.30;99.90
25877;DHT22;13692;47.480;19.216;2024-02-15T05:24:14;7.30;99.90
25877;DHT22;13692;47.480;19.216;2024-02-15T05:26:43;7.40;99.90
25877;DHT22;13692;47.480;19.216;2024-02-15T05:29:10;7.40;99.90
25877;DHT22;13692;47.480;19.216;2024-02-15T05:31:38;7.50;99.90
25877;DHT22;13692;47.480;19.216;2024-02-15T05:34:06;7.50;99.90
25877;DHT22;13692;47.480;19.216;2024-02-15T05:36:39;7.50;99.90
25877;DHT22;13692;47.480;19.216;2024-02-15T05:39:06;7.60;99.90
25877;DHT22;13692;47.480;19.216;2024-02-15T05:41:35;7.50;99.90
25877;DHT22;13692;47.480;19.216;2024-02-15T05:44:02;7.50;99.90
25877;DHT22;13692;47.480;19.216;2024-02-15T05:46:34;7.50;99.90
25877;DHT22;13692;47.480;19.216;2024-02-15T05:49:04;7.40;99.90
25877;DHT22;13692;47.480;19.216;2024-02-15T05:51:32;7.40;99.90
25877;DHT22;13692;47.480;19.216;2024-02-15T05:54:01;7.30;99.90
25877;DHT22;13692;47.480;19.216;2024-02-15T05:56:28;7.30;99.90
25877;DHT22;13692;47.480;19.216;2024-02-15T05:58:56;7.30;99.90
25877;DHT22;13692;47.480;19.216;2024-02-15T06:01:24;7.30;99.90
25877;DHT22;13692;47.480;19.216;2024-02-15T06:03:51;7.30;99.90
25877;DHT22;13692;47.480;19.216;2024-02-15T06:06:22;7.30;99.90
25877;DHT22;13692;47.480;19.216;2024-02-15T06:08:50;7.30;99.90
25877;DHT22;13692;47.480;19.216;2024-02-15T06:11:20;7.30;99.90
25877;DHT22;13692;47.480;19.216;2024-02-15T06:13:48;7.40;99.90
25877;DHT22;13692;47.480;19.216;2024-02-15T06:16:15;7.50;99.90
25877;DHT22;13692;47.480;19.216;2024-02-15T06:18:42;7.50;99.90
25877;DHT22;13692;47.480;19.216;2024-02-15T06:21:10;7.60;99.90
25877;DHT22;13692;47.480;19.216;2024-02-15T06:23:37;7.60;99.90
25877;DHT22;13692;47.480;19.216;2024-02-15T06:26:04;7.70;99.90
25877;DHT22;13692;47.480;19.216;2024-02-15T06:28:31;7.70;99.90
25877;DHT22;13692;47.480;19.216;2024-02-15T06:31:17;7.70;99.90
25877;DHT22;13692;47.480;19.216;2024-02-15T06:34:02;7.70;99.90
25877;DHT22;13692;47.480;19.216;2024-02-15T06:37:01;7.80;99.90
25877;DHT22;13692;47.480;19.216;2024-02-15T06:39:47;7.80;99.90
25877;DHT22;13692;47.480;19.216;2024-02-15T06:42:16;7.80;99.90
25877;DHT22;13692;47.480;19.216;2024-02-15T06:44:46;7.80;99.90
25877;DHT22;13692;47.480;19.216;2024-02-15T06:47:14;7.70;99.90
25877;DHT22;13692;47.480;19.216;2024-02-15T06:49:46;7.60;99.90
25877;DHT22;13692;47.480;19.216;2024-02-15T06:52:13;7.70;99.90
25877;DHT22;13692;47.480;19.216;2024-02-15T06:54:41;7.70;99.90
25877;DHT22;13692;47.480;19.216;2024-02-15T06:57:09;7.70;99.90
25877;DHT22;13692;47.480;19.216;2024-02-15T06:59:37;7.80;99.90
25877;DHT22;13692;47.480;19.216;2024-02-15T07:02:06;7.90;99.90
25877;DHT22;13692;47.480;19.216;2024-02-15T07:04:35;7.90;99.90
25877;DHT22;13692;47.480;19.216;2024-02-15T07:07:04;7.90;99.90
25877;DHT22;13692;47.480;19.216;2024-02-15T07:09:31;8.00;99.90
25877;DHT22;13692;47.480;19.216;2024-02-15T07:11:59;8.00;99.90
25877;DHT22;13692;47.480;19.216;2024-02-15T07:14:26;7.90;99.90
25877;DHT22;13692;47.480;19.216;2024-02-15T07:16:56;7.90;99.90
25877;DHT22;13692;47.480;19.216;2024-02-15T07:19:25;7.90;99.90
25877;DHT22;13692;47.480;19.216;2024-02-15T07:21:55;8.00;99.90
25877;DHT22;13692;47.480;19.216;2024-02-15T07:24:24;8.10;99.90
25877;DHT22;13692;47.480;19.216;2024-02-15T07:26:54;8.10;99.90
25877;DHT22;13692;47.480;19.216;2024-02-15T07:29:24;8.10;99.90
25877;DHT22;13692;47.480;19.216;2024-02-15T07:31:52;8.20;99.90
25877;DHT22;13692;47.480;19.216;2024-02-15T07:34:20;8.20;99.90
25877;DHT22;13692;47.480;19.216;2024-02-15T07:36:47;8.10;99.90
25877;DHT22;13692;47.480;19.216;2024-02-15T07:39:15;8.10;99.90
25877;DHT22;13692;47.480;19.216;2024-02-15T07:41:51;8.00;99.90
25877;DHT22;13692;47.480;19.216;2024-02-15T07:44:18;8.10;99.90
25877;DHT22;13692;47.480;19.216;2024-02-15T07:46:46;8.10;99.90
25877;DHT22;13692;47.480;19.216;2024-02-15T07:49:13;8.00;99.90
25877;DHT22;13692;47.480;19.216;2024-02-15T07:51:41;8.10;99.90
25877;DHT22;13692;47.480;19.216;2024-02-15T07:54:08;8.10;99.90
25877;DHT22;13692;47.480;19.216;2024-02-15T07:56:35;8.20;99.90
25877;DHT22;13692;47.480;19.216;2024-02-15T07:59:02;8.20;99.90
25877;DHT22;13692;47.480;19.216;2024-02-15T08:01:29;8.30;99.90
25877;DHT22;13692;47.480;19.216;2024-02-15T08:03:58;8.40;99.90
25877;DHT22;13692;47.480;19.216;2024-02-15T08:06:25;8.40;99.90
25877;DHT22;13692;47.480;19.216;2024-02-15T08:08:54;8.50;99.90
25877;DHT22;13692;47.480;19.216;2024-02-15T08:11:21;8.60;99.90
25877;DHT22;13692;47.480;19.216;2024-02-15T08:13:51;8.60;99.90
25877;DHT22;13692;47.480;19.216;2024-02-15T08:16:22;8.50;99.90
25877;DHT22;13692;47.480;19.216;2024-02-15T08:18:50;8.50;99.90
25877;DHT22;13692;47.480;19.216;2024-02-15T08:21:32;8.50;99.90
25877;DHT22;13692;47.480;19.216;2024-02-15T08:24:07;8.60;99.90
25877;DHT22;13692;47.480;19.216;2024-02-15T08:26:37;8.60;99.90
25877;DHT22;13692;47.480;19.216;2024-02-15T08:29:11;8.70;99.90
25877;DHT22;13692;47.480;19.216;2024-02-15T08:31:40;8.70;99.90
25877;DHT22;13692;47.480;19.216;2024-02-15T08:34:08;8.80;99.90
25877;DHT22;13692;47.480;19.216;2024-02-15T08:36:37;8.80;99.90
25877;DHT22;13692;47.480;19.216;2024-02-15T08:39:06;8.80;99.90
25877;DHT22;13692;47.480;19.216;2024-02-15T08:41:35;8.70;99.90
25877;DHT22;13692;47.480;19.216;2024-02-15T08:44:02;8.80;99.90
25877;DHT22;13692;47.480;19.216;2024-02-15T08:46:32;8.80;99.90
25877;DHT22;13692;47.480;19.216;2024-02-15T08:48:59;8.70;99.90
25877;DHT22;13692;47.480;19.216;2024-02-15T08:51:27;8.70;99.90
25877;DHT22;13692;47.480;19.216;2024-02-15T08:53:54;8.70;99.90
25877;DHT22;13692;47.480;19.216;2024-02-15T08:56:24;8.70;99.90
25877;DHT22;13692;47.480;19.216;2024-02-15T08:58:51;8.80;99.90
25877;DHT22;13692;47.480;19.216;2024-02-15T09:01:18;8.90;99.90
25877;DHT22;13692;47.480;19.216;2024-02-15T09:03:45;8.90;99.90
25877;DHT22;13692;47.480;19.216;2024-02-15T09:06:12;8.90;99.90
25877;DHT22;13692;47.480;19.216;2024-02-15T09:08:40;8.80;99.90
25877;DHT22;13692;47.480;19.216;2024-02-15T09:11:07;8.80;99.90
25877;DHT22;13692;47.480;19.216;2024-02-15T09:13:39;8.90;99.90
25877;DHT22;13692;47.480;19.216;2024-02-15T09:16:06;9.00;99.90
25877;DHT22;13692;47.480;19.216;2024-02-15T09:18:33;9.00;99.90
25877;DHT22;13692;47.480;19.216;2024-02-15T09:21:00;9.00;99.90
25877;DHT22;13692;47.480;19.216;2024-02-15T09:23:28;9.00;99.90
25877;DHT22;13692;47.480;19.216;2024-02-15T09:25:54;9.10;99.90
25877;DHT22;13692;47.480;19.216;2024-02-15T09:28:21;9.10;99.90
25877;DHT22;13692;47.480;19.216;2024-02-15T09:30:49;9.20;99.90
25877;DHT22;13692;47.480;19.216;2024-02-15T09:33:21;9.20;99.90
25877;DHT22;13692;47.480;19.216;2024-02-15T09:35:48;9.30;99.90
25877;DHT22;13692;47.480;19.216;2024-02-15T09:38:15;9.40;99.90
25877;DHT22;13692;47.480;19.216;2024-02-15T09:40:44;9.50;99.90
25877;DHT22;13692;47.480;19.216;2024-02-15T09:43:11;9.40;99.90
25877;DHT22;13692;47.480;19.216;2024-02-15T09:45:42;9.50;99.90
25877;DHT22;13692;47.480;19.216;2024-02-15T09:48:10;9.60;99.90
25877;DHT22;13692;47.480;19.216;2024-02-15T09:50:42;9.80;99.90
25877;DHT22;13692;47.480;19.216;2024-02-15T09:53:10;9.70;99.90
25877;DHT22;13692;47.480;19.216;2024-02-15T09:55:39;9.80;99.90
25877;DHT22;13692;47.480;19.216;2024-02-15T09:58:08;9.90;99.90
25877;DHT22;13692;47.480;19.216;2024-02-15T10:00:36;10.00;99.90
25877;DHT22;13692;47.480;19.216;2024-02-15T10:03:06;10.00;99.90
25877;DHT22;13692;47.480;19.216;2024-02-15T10:05:34;10.20;99.90
25877;DHT22;13692;47.480;19.216;2024-02-15T10:08:02;10.20;99.90
25877;DHT22;13692;47.480;19.216;2024-02-15T10:10:30;10.10;99.90
25877;DHT22;13692;47.480;19.216;2024-02-15T10:12:57;10.10;99.90
25877;DHT22;13692;47.480;19.216;2024-02-15T10:15:34;10.10;99.90
25877;DHT22;13692;47.480;19.216;2024-02-15T10:18:04;10.50;99.90
25877;DHT22;13692;47.480;19.216;2024-02-15T10:20:33;10.20;99.90
25877;DHT22;13692;47.480;19.216;2024-02-15T10:25:33;10.20;99.90
25877;DHT22;13692;47.480;19.216;2024-02-15T10:28:07;10.20;99.90
25877;DHT22;13692;47.480;19.216;2024-02-15T10:30:36;10.20;99.90
25877;DHT22;13692;47.480;19.216;2024-02-15T10:33:03;10.20;99.90
25877;DHT22;13692;47.480;19.216;2024-02-15T10:35:32;10.20;99.90
25877;DHT22;13692;47.480;19.216;2024-02-15T10:38:12;10.30;99.90
25877;DHT22;13692;47.480;19.216;2024-02-15T10:40:46;10.20;99.90
25877;DHT22;13692;47.480;19.216;2024-02-15T10:43:15;10.20;99.90
25877;DHT22;13692;47.480;19.216;2024-02-15T10:45:44;10.40;99.90
25877;DHT22;13692;47.480;19.216;2024-02-15T10:48:12;10.40;99.90
25877;DHT22;13692;47.480;19.216;2024-02-15T10:50:40;10.40;99.90
25877;DHT22;13692;47.480;19.216;2024-02-15T10:53:21;10.50;99.90
25877;DHT22;13692;47.480;19.216;2024-02-15T10:55:59;10.60;99.90
25877;DHT22;13692;47.480;19.216;2024-02-15T10:58:33;10.60;99.90
25877;DHT22;13692;47.480;19.216;2024-02-15T11:01:06;10.70;99.90
25877;DHT22;13692;47.480;19.216;2024-02-15T11:03:44;10.60;99.90
25877;DHT22;13692;47.480;19.216;2024-02-15T11:06:15;10.70;99.90
25877;DHT22;13692;47.480;19.216;2024-02-15T11:08:43;11.00;99.90
25877;DHT22;13692;47.480;19.216;2024-02-15T11:11:11;11.00;99.90
25877;DHT22;13692;47.480;19.216;2024-02-15T11:13:41;10.90;99.90
25877;DHT22;13692;47.480;19.216;2024-02-15T11:16:41;10.90;99.90
25877;DHT22;13692;47.480;19.216;2024-02-15T11:19:08;11.00;99.90
25877;DHT22;13692;47.480;19.216;2024-02-15T11:21:56;11.00;99.90
25877;DHT22;13692;47.480;19.216;2024-02-15T11:24:27;10.90;99.90
25877;DHT22;13692;47.480;19.216;2024-02-15T11:27:02;11.00;99.90
25877;DHT22;13692;47.480;19.216;2024-02-15T11:29:50;11.20;99.90
25877;DHT22;13692;47.480;19.216;2024-02-15T11:40:29;11.40;99.90
25877;DHT22;13692;47.480;19.216;2024-02-15T11:42:58;11.50;99.90
25877;DHT22;13692;47.480;19.216;2024-02-15T11:45:29;11.60;99.90
25877;DHT22;13692;47.480;19.216;2024-02-15T11:48:12;11.50;99.90
25877;DHT22;13692;47.480;19.216;2024-02-15T11:50:40;11.50;99.90
25877;DHT22;13692;47.480;19.216;2024-02-15T11:53:08;11.50;99.90
25877;DHT22;13692;47.480;19.216;2024-02-15T11:55:40;11.40;99.90
25877;DHT22;13692;47.480;19.216;2024-02-15T11:58:09;11.30;99.90
25877;DHT22;13692;47.480;19.216;2024-02-15T12:00:38;11.40;99.90
25877;DHT22;13692;47.480;19.216;2024-02-15T12:03:37;11.60;99.90
25877;DHT22;13692;47.480;19.216;2024-02-15T12:06:33;11.50;99.90
25877;DHT22;13692;47.480;19.216;2024-02-15T12:09:18;11.60;99.90
25877;DHT22;13692;47.480;19.216;2024-02-15T12:12:05;11.40;99.90
25877;DHT22;13692;47.480;19.216;2024-02-15T12:15:01;11.40;99.90
25877;DHT22;13692;47.480;19.216;2024-02-15T12:17:48;11.50;99.90
25877;DHT22;13692;47.480;19.216;2024-02-15T12:20:34;11.60;99.90
25877;DHT22;13692;47.480;19.216;2024-02-15T12:23:02;11.60;99.90
25877;DHT22;13692;47.480;19.216;2024-02-15T12:25:29;11.50;99.90
25877;DHT22;13692;47.480;19.216;2024-02-15T12:28:00;11.60;99.90
25877;DHT22;13692;47.480;19.216;2024-02-15T12:30:33;11.70;99.90
25877;DHT22;13692;47.480;19.216;2024-02-15T12:33:11;11.70;99.90
25877;DHT22;13692;47.480;19.216;2024-02-15T12:35:39;11.70;99.90
25877;DHT22;13692;47.480;19.216;2024-02-15T12:38:07;11.70;99.90
25877;DHT22;13692;47.480;19.216;2024-02-15T12:40:36;11.70;99.90
25877;DHT22;13692;47.480;19.216;2024-02-15T12:43:07;11.70;99.90
25877;DHT22;13692;47.480;19.216;2024-02-15T12:45:43;11.60;99.90
25877;DHT22;13692;47.480;19.216;2024-02-15T12:48:10;11.50;99.90
25877;DHT22;13692;47.480;19.216;2024-02-15T12:50:38;11.50;99.90
25877;DHT22;13692;47.480;19.216;2024-02-15T12:53:05;11.60;99.90
25877;DHT22;13692;47.480;19.216;2024-02-15T12:55:36;11.60;99.90
25877;DHT22;13692;47.480;19.216;2024-02-15T12:58:09;11.50;99.90
25877;DHT22;13692;47.480;19.216;2024-02-15T13:00:42;11.40;99.90
25877;DHT22;13692;47.480;19.216;2024-02-15T13:03:11;11.50;99.90
25877;DHT22;13692;47.480;19.216;2024-02-15T13:05:40;11.60;99.90
25877;DHT22;13692;47.480;19.216;2024-02-15T13:08:08;11.50;99.90
25877;DHT22;13692;47.480;19.216;2024-02-15T13:10:41;11.60;99.90
25877;DHT22;13692;47.480;19.216;2024-02-15T13:13:09;11.60;99.90
25877;DHT22;13692;47.480;19.216;2024-02-15T13:15:37;11.60;99.90
25877;DHT22;13692;47.480;19.216;2024-02-15T13:18:04;11.50;99.90
25877;DHT22;13692;47.480;19.216;2024-02-15T13:20:33;11.50;99.90
25877;DHT22;13692;47.480;19.216;2024-02-15T13:25:36;11.50;99.90
25877;DHT22;13692;47.480;19.216;2024-02-15T13:28:04;11.40;99.90
25877;DHT22;13692;47.480;19.216;2024-02-15T13:30:32;11.40;99.90
25877;DHT22;13692;47.480;19.216;2024-02-15T13:33:00;11.30;99.90
25877;DHT22;13692;47.480;19.216;2024-02-15T13:35:28;11.40;99.90
25877;DHT22;13692;47.480;19.216;2024-02-15T13:37:55;11.30;99.90
25877;DHT22;13692;47.480;19.216;2024-02-15T13:40:26;11.30;99.90
25877;DHT22;13692;47.480;19.216;2024-02-15T13:42:58;11.30;99.90
25877;DHT22;13692;47.480;19.216;2024-02-15T13:45:31;11.40;99.90
25877;DHT22;13692;47.480;19.216;2024-02-15T13:48:01;11.50;99.90
25877;DHT22;13692;47.480;19.216;2024-02-15T13:50:30;11.50;99.90
25877;DHT22;13692;47.480;19.216;2024-02-15T13:52:57;11.50;99.90
25877;DHT22;13692;47.480;19.216;2024-02-15T13:55:25;11.40;99.90
25877;DHT22;13692;47.480;19.216;2024-02-15T13:57:54;11.30;99.90
25877;DHT22;13692;47.480;19.216;2024-02-15T14:00:24;11.20;99.90
25877;DHT22;13692;47.480;19.216;2024-02-15T14:02:58;11.20;99.90
25877;DHT22;13692;47.480;19.216;2024-02-15T14:05:29;11.20;99.90
25877;DHT22;13692;47.480;19.216;2024-02-15T14:08:03;11.30;99.90
25877;DHT22;13692;47.480;19.216;2024-02-15T14:10:33;11.30;99.90
25877;DHT22;13692;47.480;19.216;2024-02-15T14:13:04;11.30;99.90
25877;DHT22;13692;47.480;19.216;2024-02-15T14:15:38;11.30;99.90
25877;DHT22;13692;47.480;19.216;2024-02-15T14:18:07;11.20;99.90
25877;DHT22;13692;47.480;19.216;2024-02-15T14:20:38;11.20;99.90
25877;DHT22;13692;47.480;19.216;2024-02-15T14:23:05;11.20;99.90
25877;DHT22;13692;47.480;19.216;2024-02-15T14:25:33;11.30;99.90
25877;DHT22;13692;47.480;19.216;2024-02-15T14:28:01;11.30;99.90
25877;DHT22;13692;47.480;19.216;2024-02-15T14:30:29;11.30;99.90
25877;DHT22;13692;47.480;19.216;2024-02-15T14:33:15;11.20;99.90
25877;DHT22;13692;47.480;19.216;2024-02-15T14:35:46;11.20;99.90
25877;DHT22;13692;47.480;19.216;2024-02-15T14:38:13;11.20;99.90
25877;DHT22;13692;47.480;19.216;2024-02-15T14:40:46;11.20;99.90
25877;DHT22;13692;47.480;19.216;2024-02-15T14:43:26;11.20;99.90
25877;DHT22;13692;47.480;19.216;2024-02-15T14:45:54;11.20;99.90
25877;DHT22;13692;47.480;19.216;2024-02-15T14:48:24;11.10;99.90
25877;DHT22;13692;47.480;19.216;2024-02-15T14:50:52;11.10;99.90
25877;DHT22;13692;47.480;19.216;2024-02-15T14:53:20;11.00;99.90
25877;DHT22;13692;47.480;19.216;2024-02-15T14:55:48;11.00;99.90
25877;DHT22;13692;47.480;19.216;2024-02-15T14:58:16;11.10;99.90
25877;DHT22;13692;47.480;19.216;2024-02-15T15:00:45;11.10;99.90
25877;DHT22;13692;47.480;19.216;2024-02-15T15:03:14;11.00;99.90
25877;DHT22;13692;47.480;19.216;2024-02-15T15:05:42;11.00;99.90
25877;DHT22;13692;47.480;19.216;2024-02-15T15:08:28;11.00;99.90
25877;DHT22;13692;47.480;19.216;2024-02-15T15:11:15;11.10;99.90
25877;DHT22;13692;47.480;19.216;2024-02-15T15:14:01;11.10;99.90
25877;DHT22;13692;47.480;19.216;2024-02-15T15:16:31;11.20;99.90
25877;DHT22;13692;47.480;19.216;2024-02-15T15:18:58;11.10;99.90
25877;DHT22;13692;47.480;19.216;2024-02-15T15:21:26;11.00;99.90
25877;DHT22;13692;47.480;19.216;2024-02-15T15:23:55;11.00;99.90
25877;DHT22;13692;47.480;19.216;2024-02-15T15:26:23;11.00;99.90
25877;DHT22;13692;47.480;19.216;2024-02-15T15:28:50;11.00;99.90
25877;DHT22;13692;47.480;19.216;2024-02-15T15:31:17;11.00;99.90
25877;DHT22;13692;47.480;19.216;2024-02-15T15:33:47;10.90;99.90
25877;DHT22;13692;47.480;19.216;2024-02-15T15:36:17;10.90;99.90
25877;DHT22;13692;47.480;19.216;2024-02-15T15:38:47;10.90;99.90
25877;DHT22;13692;47.480;19.216;2024-02-15T15:41:15;10.90;99.90
25877;DHT22;13692;47.480;19.216;2024-02-15T15:43:42;10.80;99.90
25877;DHT22;13692;47.480;19.216;2024-02-15T15:46:13;10.80;99.90
25877;DHT22;13692;47.480;19.216;2024-02-15T15:48:41;10.80;99.90
25877;DHT22;13692;47.480;19.216;2024-02-15T15:51:09;10.80;99.90
25877;DHT22;13692;47.480;19.216;2024-02-15T15:53:37;10.80;99.90